Elko Regional Airport
KEKO : now visible

Airfield :











YOU CAN JOIN US ON...

 
LOGIN :

Register | Disclaimer

   EN    FR    IT 

 









Legend :    VFR   Marginal VFR   IFR   Intensive IFR   Very Intensive IFR
Visi :
Ceiling :
>= 8 km
>= 3000ft
5 to 8 km
1000 to 3000 ft
1500m to 5 km
500 to 1000 ft
800 to 1500m
200 to 500 ft
< 800m
< 200 ft
Symbols :   Thunderstorms  Fog  Heavy snow  Heavy precipitations  Wind > 20 kt






- Airport Elevation : 5140 ft
- IATA code : EKO


KEKO - Elko Regional

CURRENT METAR :
  • 232156Z AUTO 19009G14KT 10SM CLR 36/02 A3016 RMK AO2 SLP139 T03610022

EXPIRED METARs :
  • 232056Z AUTO 20005KT 10SM CLR 34/04 A3018 RMK AO2 SLP149 T03440039 58014
  • 231956Z AUTO 22006KT 10SM CLR 34/03 A3020 RMK AO2 SLP154 T03390033

TAF KEKO
Valid from the 23 at 18:00 until the 24 at 18:00 UTC


231720Z 2318/2418 VRB04KT P6SM SCT150 SCT200
FM232200 28008G18KT P6SM SCT120 BKN200
FM240500 04007KT P6SM SCT120 BKN150
FM241700 26007KT P6SM SCT100
KZLC FIR / North America



MET'MAP, your aeronautical weather chart ! - Copyright ORBIFLY December 2007 - Disclaimer

ORBIFLY MET'MAP TEAM :

Programming & Development : Alexandra Zaïnal
Concept & original design : Baudouin d'Aumeries
Assistance for programming : Marc-Olivier Méhu
Technical & hardware support : Manuel Goepfert

Contact : metmap@orbifly.com




SOURCES & CREDITS :

   NOAA       Earth
Advisory